createdAt,value
2019-04-07T00:00:07.192Z,22.27
2019-04-07T00:02:35.976Z,20.83
2019-04-07T00:05:13.053Z,20.17
2019-04-07T00:07:36.271Z,20.70
2019-04-07T00:10:08.385Z,19.93
2019-04-07T00:12:37.498Z,19.90
2019-04-07T00:15:08.204Z,20.87
2019-04-07T00:17:37.532Z,22.43
2019-04-07T00:20:07.333Z,20.57
2019-04-07T00:22:35.924Z,23.77
2019-04-07T00:25:05.266Z,20.30
2019-04-07T00:27:33.985Z,21.53
2019-04-07T00:30:02.397Z,23.23
2019-04-07T00:32:30.850Z,21.77
2019-04-07T00:34:59.886Z,22.00
2019-04-07T00:37:28.397Z,22.13
2019-04-07T00:39:57.736Z,22.73
2019-04-07T00:42:27.369Z,21.20
2019-04-07T00:44:55.997Z,21.97
2019-04-07T00:47:24.918Z,22.33
2019-04-07T00:49:53.430Z,22.33
2019-04-07T00:52:25.275Z,22.17
2019-04-07T00:54:55.491Z,21.93
2019-04-07T00:57:23.870Z,23.80
2019-04-07T00:59:52.274Z,25.33
2019-04-07T01:02:21.335Z,25.93
2019-04-07T01:04:49.771Z,22.33
2019-04-07T01:07:18.271Z,22.37
2019-04-07T01:09:46.694Z,21.13
2019-04-07T01:12:15.121Z,22.13
2019-04-07T01:14:43.554Z,24.10
2019-04-07T01:17:12.547Z,20.90
2019-04-07T01:19:41.103Z,22.87
2019-04-07T01:22:09.968Z,23.83
2019-04-07T01:24:38.454Z,22.33
2019-04-07T01:27:06.889Z,23.47
2019-04-07T01:29:35.431Z,23.43
2019-04-07T01:32:03.995Z,22.07
2019-04-07T01:34:32.423Z,22.57
2019-04-07T01:37:01.018Z,21.73
2019-04-07T01:39:31.507Z,21.33
2019-04-07T01:42:05.031Z,22.77
2019-04-07T01:44:38.717Z,23.07
2019-04-07T01:47:21.713Z,21.20
2019-04-07T01:50:09.934Z,23.20
2019-04-07T01:52:42.634Z,21.10
2019-04-07T01:55:19.072Z,21.77
2019-04-07T01:58:07.365Z,21.67
2019-04-07T02:00:38.094Z,21.37
2019-04-07T02:03:08.424Z,21.47
2019-04-07T02:06:00.598Z,22.83
2019-04-07T02:08:32.002Z,22.20
2019-04-07T02:11:18.687Z,22.63
2019-04-07T02:13:52.477Z,22.43
2019-04-07T02:16:23.523Z,22.13
2019-04-07T02:18:54.224Z,24.43
2019-04-07T02:21:33.743Z,22.70
2019-04-07T02:24:19.275Z,22.73
2019-04-07T02:27:01.842Z,22.37
2019-04-07T02:29:35.819Z,21.80
2019-04-07T02:32:06.306Z,22.30
2019-04-07T02:34:36.481Z,21.10
2019-04-07T02:37:12.728Z,21.97
2019-04-07T02:39:43.743Z,19.13
2019-04-07T02:42:15.118Z,20.80
2019-04-07T02:44:57.861Z,20.60
2019-04-07T02:47:33.741Z,19.73
2019-04-07T02:50:03.972Z,21.37
2019-04-07T02:52:51.335Z,20.43
2019-04-07T02:55:21.923Z,22.17
2019-04-07T02:58:07.799Z,20.17
2019-04-07T03:00:38.059Z,21.53
2019-04-07T03:03:10.915Z,21.40
2019-04-07T03:05:47.471Z,21.77
2019-04-07T03:08:18.446Z,23.17
2019-04-07T03:11:05.610Z,23.43
2019-04-07T03:13:52.227Z,23.10
2019-04-07T03:16:29.209Z,24.83
2019-04-07T03:19:11.230Z,23.67
2019-04-07T03:21:41.306Z,23.27
2019-04-07T03:24:17.206Z,24.30
2019-04-07T03:27:04.039Z,24.20
2019-04-07T03:29:50.596Z,24.10
2019-04-07T03:32:42.585Z,22.10
2019-04-07T03:35:31.280Z,22.07
2019-04-07T03:38:00.927Z,22.33
2019-04-07T03:40:39.827Z,25.77
2019-04-07T03:43:13.441Z,23.50
2019-04-07T03:45:49.940Z,24.27
2019-04-07T03:48:26.502Z,23.10
2019-04-07T03:50:56.922Z,24.00
2019-04-07T03:53:39.335Z,24.87
2019-04-07T03:56:25.712Z,22.77
2019-04-07T03:59:07.887Z,23.27
2019-04-07T04:01:44.204Z,22.73
2019-04-07T04:04:17.639Z,23.10
2019-04-07T04:07:17.855Z,24.07
2019-04-07T04:09:51.787Z,24.63
2019-04-07T04:12:28.134Z,22.87
2019-04-07T04:15:01.763Z,22.93
2019-04-07T04:17:30.573Z,23.63
2019-04-07T04:19:59.241Z,22.33
2019-04-07T04:22:29.004Z,21.93
2019-04-07T04:24:57.798Z,23.17
2019-04-07T04:27:26.308Z,21.77
2019-04-07T04:29:55.282Z,22.03
2019-04-07T04:32:25.286Z,20.80
2019-04-07T04:34:54.663Z,22.47
2019-04-07T04:37:36.890Z,25.67
2019-04-07T04:39:54.199Z,23.10
2019-04-07T04:42:22.906Z,23.70
2019-04-07T04:44:52.175Z,25.17
2019-04-07T04:47:21.656Z,23.73
2019-04-07T04:49:50.389Z,23.67
2019-04-07T04:52:20.548Z,23.50
2019-04-07T04:54:49.680Z,24.13
2019-04-07T04:57:18.352Z,24.07
2019-04-07T04:59:46.832Z,23.00
2019-04-07T05:02:15.973Z,23.60
2019-04-07T05:04:44.757Z,21.30
2019-04-07T05:07:13.301Z,20.43
2019-04-07T05:09:48.773Z,21.53
2019-04-07T05:12:11.884Z,22.83
2019-04-07T05:14:40.312Z,21.93
2019-04-07T05:17:09.975Z,22.30
2019-04-07T05:19:39.111Z,23.77
2019-04-07T05:22:08.730Z,21.57
2019-04-07T05:24:37.676Z,22.57
2019-04-07T05:27:06.414Z,21.67
2019-04-07T05:29:35.600Z,21.90
2019-04-07T05:32:04.596Z,21.33
2019-04-07T05:34:33.389Z,21.53
2019-04-07T05:37:02.246Z,22.47
2019-04-07T05:39:30.886Z,23.67
2019-04-07T05:42:00.003Z,22.67
2019-04-07T05:44:28.910Z,22.70
2019-04-07T05:46:58.154Z,21.47
2019-04-07T05:49:27.114Z,21.43
2019-04-07T05:51:55.674Z,19.97
2019-04-07T05:54:25.697Z,21.03
2019-04-07T05:56:54.186Z,23.17
2019-04-07T05:59:24.254Z,20.80
2019-04-07T06:01:59.377Z,19.03
2019-04-07T06:04:22.842Z,22.30
2019-04-07T06:06:53.526Z,22.33
2019-04-07T06:09:21.438Z,20.07
2019-04-07T06:11:52.425Z,20.20
2019-04-07T06:14:21.428Z,20.57
2019-04-07T06:16:54.240Z,22.17
2019-04-07T06:19:20.363Z,22.57
2019-04-07T06:21:49.871Z,22.27
2019-04-07T06:24:21.968Z,30.20
2019-04-07T06:26:49.931Z,25.60
2019-04-07T06:29:19.904Z,25.53
2019-04-07T06:31:48.559Z,24.90
2019-04-07T06:34:17.217Z,22.00
2019-04-07T06:36:48.354Z,20.90
2019-04-07T06:39:18.153Z,21.23
2019-04-07T06:41:46.564Z,21.80
2019-04-07T06:44:19.406Z,22.90
2019-04-07T06:46:52.754Z,21.23
2019-04-07T06:49:29.582Z,23.53
2019-04-07T06:52:09.349Z,23.63
2019-04-07T06:54:39.869Z,21.97
2019-04-07T06:57:26.836Z,21.63
2019-04-07T06:59:59.884Z,20.93
2019-04-07T07:02:33.049Z,21.10
2019-04-07T07:05:06.094Z,20.80
2019-04-07T07:07:38.909Z,20.37
2019-04-07T07:10:28.131Z,21.17
2019-04-07T07:12:51.770Z,21.57
2019-04-07T07:15:36.119Z,24.77
2019-04-07T07:18:06.111Z,21.17
2019-04-07T07:20:45.205Z,20.30
2019-04-07T07:23:27.357Z,20.27
2019-04-07T07:25:56.479Z,21.33
2019-04-07T07:28:25.076Z,20.27
2019-04-07T07:30:53.742Z,21.17
2019-04-07T07:33:23.465Z,19.27
2019-04-07T07:35:52.677Z,20.03
2019-04-07T07:38:21.361Z,18.63
2019-04-07T07:40:50.106Z,20.00
2019-04-07T07:43:18.679Z,19.83
2019-04-07T07:45:48.530Z,20.03
2019-04-07T07:48:17.489Z,19.70
2019-04-07T07:50:47.047Z,19.37
2019-04-07T07:53:15.812Z,17.60
2019-04-07T07:55:44.508Z,17.40
2019-04-07T07:58:13.836Z,18.20
2019-04-07T08:00:43.407Z,17.63
2019-04-07T08:03:12.097Z,17.90
2019-04-07T08:05:40.940Z,16.23
2019-04-07T08:08:09.465Z,15.20
2019-04-07T08:10:38.202Z,14.87
2019-04-07T08:13:08.681Z,14.10
2019-04-07T08:15:37.158Z,12.33
2019-04-07T08:18:08.162Z,12.67
2019-04-07T08:20:35.735Z,11.43
2019-04-07T08:23:04.716Z,11.93
2019-04-07T08:25:34.627Z,12.03
2019-04-07T08:28:04.583Z,12.00
2019-04-07T08:30:33.234Z,12.67
2019-04-07T08:33:02.447Z,12.97
2019-04-07T08:35:36.527Z,12.87
2019-04-07T08:38:02.038Z,12.10
2019-04-07T08:40:30.919Z,11.60
2019-04-07T08:42:59.471Z,11.80
2019-04-07T08:45:31.003Z,11.90
2019-04-07T08:47:58.126Z,11.37
2019-04-07T08:50:28.483Z,11.93
2019-04-07T08:52:56.753Z,10.80
2019-04-07T08:55:25.671Z,10.40
2019-04-07T08:57:54.995Z,9.97
2019-04-07T09:00:26.104Z,9.93
2019-04-07T09:03:04.421Z,10.03
2019-04-07T09:05:29.040Z,11.77
2019-04-07T09:07:55.755Z,11.23
2019-04-07T09:10:25.985Z,9.47
2019-04-07T09:12:54.425Z,7.77
2019-04-07T09:15:24.504Z,8.30
2019-04-07T09:18:06.247Z,6.87
2019-04-07T09:20:40.054Z,6.30
2019-04-07T09:23:12.471Z,6.20
2019-04-07T09:25:59.404Z,5.70
2019-04-07T09:28:46.088Z,5.50
2019-04-07T09:31:16.438Z,5.53
2019-04-07T09:34:02.990Z,6.20
2019-04-07T09:36:39.272Z,5.50
2019-04-07T09:39:16.617Z,5.30
2019-04-07T09:41:46.747Z,5.43
2019-04-07T09:44:19.847Z,5.33
2019-04-07T09:46:50.550Z,5.00
2019-04-07T09:49:37.962Z,5.40
2019-04-07T09:52:20.860Z,5.90
2019-04-07T09:54:53.789Z,5.37
2019-04-07T09:57:39.760Z,5.40
2019-04-07T10:00:10.516Z,7.13
2019-04-07T10:02:58.881Z,5.03
2019-04-07T10:05:40.262Z,4.73
2019-04-07T10:08:13.790Z,5.33
2019-04-07T10:10:59.418Z,5.40
2019-04-07T10:13:32.504Z,5.60
2019-04-07T10:16:02.755Z,5.70
2019-04-07T10:18:49.428Z,5.73
2019-04-07T10:21:22.709Z,6.50
2019-04-07T10:23:59.341Z,6.20
2019-04-07T10:26:32.516Z,5.97
2019-04-07T10:29:06.049Z,5.30
2019-04-07T10:31:52.939Z,6.33
2019-04-07T10:34:35.249Z,5.53
2019-04-07T10:37:11.536Z,6.03
2019-04-07T10:39:59.260Z,5.90
2019-04-07T10:42:50.167Z,7.07
2019-04-07T10:45:20.678Z,6.33
2019-04-07T10:47:53.555Z,6.23
2019-04-07T10:50:30.192Z,7.27
2019-04-07T10:53:09.537Z,6.83
2019-04-07T10:55:39.651Z,6.43
2019-04-07T10:58:21.962Z,9.43
2019-04-07T11:00:54.922Z,7.10
2019-04-07T11:03:41.337Z,6.90
2019-04-07T11:06:18.083Z,7.33
2019-04-07T11:09:04.801Z,6.47
2019-04-07T11:11:46.636Z,7.37
2019-04-07T11:14:18.490Z,7.30
2019-04-07T11:16:51.266Z,7.00
2019-04-07T11:19:36.374Z,6.27
2019-04-07T11:22:15.193Z,6.57
2019-04-07T11:24:45.880Z,7.37
2019-04-07T11:27:19.139Z,6.80
2019-04-07T11:29:52.784Z,6.77
2019-04-07T11:32:26.107Z,6.57
2019-04-07T11:35:02.773Z,6.97
2019-04-07T11:37:38.969Z,5.97
2019-04-07T11:40:22.662Z,6.07
2019-04-07T11:42:53.437Z,6.33
2019-04-07T11:45:35.961Z,6.50
2019-04-07T11:48:23.083Z,5.97
2019-04-07T11:50:53.999Z,6.55
2019-04-07T11:53:35.142Z,6.83
2019-04-07T11:56:17.256Z,8.98
2019-04-07T11:58:59.081Z,5.95
2019-04-07T12:01:32.743Z,6.35
2019-04-07T12:04:03.033Z,7.65
2019-04-07T12:06:49.806Z,6.45
2019-04-07T12:09:29.345Z,6.22
2019-04-07T12:12:02.503Z,6.35
2019-04-07T12:14:52.110Z,7.12
2019-04-07T12:17:39.463Z,6.33
2019-04-07T12:20:28.132Z,7.45
2019-04-07T12:23:03.688Z,7.33
2019-04-07T12:25:43.004Z,6.30
2019-04-07T12:28:19.443Z,7.03
2019-04-07T12:30:53.379Z,6.62
2019-04-07T12:33:32.887Z,6.72
2019-04-07T12:36:19.302Z,7.15
2019-04-07T12:38:52.578Z,6.53
2019-04-07T12:41:25.323Z,6.50
2019-04-07T12:43:56.124Z,6.97
2019-04-07T12:46:42.643Z,6.67
2019-04-07T12:49:13.291Z,8.40
2019-04-07T12:52:04.409Z,6.25
2019-04-07T12:54:35.228Z,6.70
2019-04-07T12:57:20.186Z,7.00
2019-04-07T12:59:59.639Z,7.40
2019-04-07T13:02:30.150Z,7.22
2019-04-07T13:05:16.533Z,7.28
2019-04-07T13:07:54.323Z,8.95
2019-04-07T13:10:30.281Z,6.95
2019-04-07T13:13:02.622Z,7.10
2019-04-07T13:15:36.653Z,7.58
2019-04-07T13:18:10.991Z,6.70
2019-04-07T13:20:59.118Z,6.97
2019-04-07T13:23:46.042Z,6.30
2019-04-07T13:26:24.719Z,5.92
2019-04-07T13:28:56.467Z,6.25
2019-04-07T13:31:49.176Z,5.15
2019-04-07T13:34:25.156Z,6.30
2019-04-07T13:37:10.206Z,5.70
2019-04-07T13:39:56.737Z,5.70
2019-04-07T13:42:35.825Z,5.22
2019-04-07T13:45:28.045Z,5.83
2019-04-07T13:48:05.743Z,5.67
2019-04-07T13:50:52.962Z,5.20
2019-04-07T13:53:30.627Z,5.20
2019-04-07T13:56:19.480Z,5.75
2019-04-07T13:59:05.479Z,5.05
2019-04-07T14:01:39.719Z,5.20
2019-04-07T14:04:18.628Z,5.03
2019-04-07T14:06:51.546Z,5.65
2019-04-07T14:09:32.326Z,6.17
2019-04-07T14:12:13.846Z,4.55
2019-04-07T14:14:43.593Z,5.62
2019-04-07T14:17:14.194Z,5.17
2019-04-07T14:19:46.481Z,5.72
2019-04-07T14:22:32.136Z,5.00
2019-04-07T14:25:09.092Z,5.47
2019-04-07T14:27:46.168Z,5.40
2019-04-07T14:30:16.954Z,5.20
2019-04-07T14:32:48.663Z,5.73
2019-04-07T14:35:24.474Z,5.83
2019-04-07T14:38:03.785Z,5.23
2019-04-07T14:40:39.974Z,6.13
2019-04-07T14:43:17.635Z,4.87
2019-04-07T14:46:07.577Z,5.60
2019-04-07T14:48:46.268Z,4.80
2019-04-07T14:51:25.169Z,5.60
2019-04-07T14:53:58.351Z,5.97
2019-04-07T14:56:47.799Z,6.20
2019-04-07T14:59:25.484Z,5.33
2019-04-07T15:02:00.352Z,5.20
2019-04-07T15:04:29.131Z,5.00
2019-04-07T15:07:16.228Z,5.20
2019-04-07T15:09:55.800Z,5.23
2019-04-07T15:12:32.508Z,5.63
2019-04-07T15:15:04.807Z,5.20
2019-04-07T15:17:31.849Z,5.17
2019-04-07T15:20:00.457Z,6.00
2019-04-07T15:22:29.971Z,6.83
2019-04-07T15:24:59.355Z,6.97
2019-04-07T15:27:28.656Z,6.83
2019-04-07T15:29:57.805Z,6.37
2019-04-07T15:32:28.662Z,5.90
2019-04-07T15:34:56.514Z,5.90
2019-04-07T15:37:25.134Z,4.87
2019-04-07T15:39:53.614Z,4.93
2019-04-07T15:42:33.070Z,4.53
2019-04-07T15:44:52.378Z,4.57
2019-04-07T15:47:21.894Z,4.40
2019-04-07T15:49:51.352Z,3.97
2019-04-07T15:52:20.657Z,3.83
2019-04-07T15:54:49.281Z,4.40
2019-04-07T15:57:20.904Z,4.77
2019-04-07T15:59:48.104Z,4.87
2019-04-07T16:02:17.228Z,4.47
2019-04-07T16:04:45.764Z,5.07
2019-04-07T16:07:14.582Z,5.00
2019-04-07T16:09:50.746Z,4.73
2019-04-07T16:12:14.543Z,7.87
2019-04-07T16:14:45.876Z,4.70
2019-04-07T16:17:13.142Z,4.83
2019-04-07T16:19:44.998Z,4.77
2019-04-07T16:22:13.971Z,4.83
2019-04-07T16:24:41.939Z,4.60
2019-04-07T16:27:17.087Z,5.90
2019-04-07T16:29:46.877Z,4.70
2019-04-07T16:32:15.784Z,4.43
2019-04-07T16:34:44.867Z,4.30
2019-04-07T16:37:13.820Z,4.73
2019-04-07T16:39:42.624Z,6.13
2019-04-07T16:42:11.088Z,6.47
2019-04-07T16:44:43.263Z,4.47
2019-04-07T16:47:20.254Z,5.13
2019-04-07T16:49:44.676Z,5.40
2019-04-07T16:52:10.338Z,4.30
2019-04-07T16:54:41.665Z,4.27
2019-04-07T16:57:09.374Z,4.40
2019-04-07T16:59:40.827Z,5.27
2019-04-07T17:02:09.124Z,4.60
2019-04-07T17:04:38.487Z,4.37
2019-04-07T17:07:11.422Z,4.43
2019-04-07T17:09:37.230Z,5.60
2019-04-07T17:12:09.384Z,5.63
2019-04-07T17:14:37.438Z,5.33
2019-04-07T17:17:06.347Z,5.10
2019-04-07T17:19:35.882Z,4.77
2019-04-07T17:22:04.643Z,4.83
2019-04-07T17:24:33.460Z,5.20
2019-04-07T17:27:03.104Z,4.97
2019-04-07T17:29:32.283Z,5.27
2019-04-07T17:32:01.764Z,7.07
2019-04-07T17:34:30.978Z,5.63
2019-04-07T17:36:59.422Z,5.63
2019-04-07T17:39:39.197Z,5.80
2019-04-07T17:42:10.482Z,6.00
2019-04-07T17:44:50.122Z,5.97
2019-04-07T17:47:23.349Z,5.73
2019-04-07T17:50:10.542Z,5.77
2019-04-07T17:52:44.120Z,6.10
2019-04-07T17:55:29.910Z,6.00
2019-04-07T17:58:03.170Z,6.17
2019-04-07T18:00:50.680Z,6.30
2019-04-07T18:03:27.331Z,6.10
2019-04-07T18:06:16.722Z,6.83
2019-04-07T18:08:47.269Z,6.30
2019-04-07T18:11:30.131Z,6.60
2019-04-07T18:14:12.626Z,7.10
2019-04-07T18:16:46.176Z,6.87
2019-04-07T18:19:33.749Z,6.30
2019-04-07T18:22:04.398Z,6.00
2019-04-07T18:24:51.018Z,6.20
2019-04-07T18:27:24.174Z,6.77
2019-04-07T18:30:11.793Z,6.80
2019-04-07T18:32:51.471Z,6.83
2019-04-07T18:35:32.929Z,6.47
2019-04-07T18:38:10.242Z,6.70
2019-04-07T18:40:58.434Z,6.20
2019-04-07T18:43:26.664Z,6.73
2019-04-07T18:46:08.851Z,6.37
2019-04-07T18:48:42.350Z,8.97
2019-04-07T18:51:29.388Z,6.83
2019-04-07T18:54:01.848Z,7.10
2019-04-07T18:56:31.348Z,7.07
2019-04-07T18:59:02.164Z,7.03
2019-04-07T19:01:33.066Z,6.30
2019-04-07T19:04:03.270Z,7.10
2019-04-07T19:06:33.342Z,7.80
2019-04-07T19:09:21.482Z,7.67
2019-04-07T19:12:02.753Z,8.40
2019-04-07T19:14:40.283Z,7.80
2019-04-07T19:17:06.923Z,6.90
2019-04-07T19:19:53.516Z,7.23
2019-04-07T19:22:30.256Z,7.00
2019-04-07T19:25:05.179Z,7.43
2019-04-07T19:27:50.439Z,7.37
2019-04-07T19:30:33.291Z,7.53
2019-04-07T19:33:12.531Z,7.83
2019-04-07T19:35:43.420Z,7.03
2019-04-07T19:38:17.106Z,7.47
2019-04-07T19:41:01.476Z,6.93
2019-04-07T19:43:33.031Z,7.80
2019-04-07T19:46:09.226Z,7.70
2019-04-07T19:48:42.748Z,8.07
2019-04-07T19:51:29.440Z,7.63
2019-04-07T19:54:05.313Z,7.67
2019-04-07T19:56:52.717Z,8.17
2019-04-07T19:59:41.599Z,7.20
2019-04-07T20:02:22.905Z,7.73
2019-04-07T20:04:53.708Z,6.87
2019-04-07T20:07:24.385Z,6.47
2019-04-07T20:10:01.208Z,6.53
2019-04-07T20:12:34.680Z,6.80
2019-04-07T20:15:15.240Z,6.73
2019-04-07T20:18:00.710Z,7.10
2019-04-07T20:20:51.039Z,9.47
2019-04-07T20:23:39.382Z,7.10
2019-04-07T20:26:20.758Z,7.70
2019-04-07T20:28:55.941Z,9.33
2019-04-07T20:31:35.051Z,8.93
2019-04-07T20:34:05.992Z,9.77
2019-04-07T20:36:36.358Z,10.43
2019-04-07T20:39:09.377Z,10.30
2019-04-07T20:41:46.885Z,9.87
2019-04-07T20:44:35.218Z,8.97
2019-04-07T20:47:05.018Z,8.50
2019-04-07T20:49:51.670Z,8.03
2019-04-07T20:52:34.123Z,8.20
2019-04-07T20:55:19.363Z,8.17
2019-04-07T20:57:54.079Z,9.97
2019-04-07T21:00:36.928Z,9.63
2019-04-07T21:03:15.104Z,9.27
2019-04-07T21:05:37.798Z,7.83
2019-04-07T21:08:21.878Z,7.60
2019-04-07T21:11:08.218Z,9.33
2019-04-07T21:13:47.952Z,8.37
2019-04-07T21:16:25.958Z,7.90
2019-04-07T21:19:08.501Z,7.43
2019-04-07T21:21:49.259Z,7.90
2019-04-07T21:24:20.017Z,7.73
2019-04-07T21:26:51.089Z,9.10
2019-04-07T21:29:25.899Z,8.43
2019-04-07T21:31:57.169Z,9.40
2019-04-07T21:34:29.584Z,8.70
2019-04-07T21:37:12.885Z,8.10
2019-04-07T21:39:42.501Z,7.83
2019-04-07T21:42:22.231Z,8.20
2019-04-07T21:45:02.364Z,7.73
2019-04-07T21:47:36.567Z,8.07
2019-04-07T21:50:16.082Z,7.77
2019-04-07T21:52:54.719Z,7.63
2019-04-07T21:55:26.420Z,8.60
2019-04-07T21:58:02.217Z,7.40
2019-04-07T22:00:41.334Z,6.57
2019-04-07T22:03:27.716Z,7.20
2019-04-07T22:06:04.744Z,6.57
2019-04-07T22:08:43.446Z,6.87
2019-04-07T22:11:11.298Z,6.50
2019-04-07T22:13:40.693Z,6.80
2019-04-07T22:16:10.032Z,6.70
2019-04-07T22:18:39.421Z,7.73
2019-04-07T22:21:08.502Z,7.73
2019-04-07T22:23:36.940Z,7.07
2019-04-07T22:26:10.335Z,6.67
2019-04-07T22:28:35.593Z,7.30
2019-04-07T22:31:04.130Z,7.80
2019-04-07T22:33:33.742Z,7.40
2019-04-07T22:36:02.666Z,8.47
2019-04-07T22:38:31.506Z,8.00
2019-04-07T22:41:00.591Z,8.63
2019-04-07T22:43:29.114Z,8.70
2019-04-07T22:46:07.078Z,8.60
2019-04-07T22:48:28.547Z,8.47
2019-04-07T22:50:58.800Z,8.27
2019-04-07T22:53:29.666Z,8.20
2019-04-07T22:55:57.698Z,8.17
2019-04-07T22:58:26.127Z,7.73
2019-04-07T23:00:54.562Z,6.97
2019-04-07T23:03:23.930Z,8.00
2019-04-07T23:05:53.347Z,7.30
2019-04-07T23:08:21.818Z,7.90
2019-04-07T23:10:50.939Z,7.03
2019-04-07T23:13:19.652Z,7.57
2019-04-07T23:15:48.625Z,7.97
2019-04-07T23:18:17.913Z,8.37
2019-04-07T23:20:46.520Z,8.20
2019-04-07T23:23:15.205Z,9.33
2019-04-07T23:25:44.057Z,8.30
2019-04-07T23:28:12.645Z,8.73
2019-04-07T23:30:41.064Z,9.40
2019-04-07T23:33:10.412Z,9.00
2019-04-07T23:35:39.318Z,8.47
2019-04-07T23:38:07.974Z,9.27
2019-04-07T23:40:36.422Z,8.47
2019-04-07T23:43:04.891Z,8.67
2019-04-07T23:45:33.708Z,8.07
2019-04-07T23:48:02.290Z,8.10
2019-04-07T23:50:31.521Z,8.10
2019-04-07T23:53:03.543Z,7.63
2019-04-07T23:55:32.110Z,8.20
2019-04-07T23:58:00.686Z,8.93
